Time;durP1;ratioP1;P1;durP2;ratioP2;P2;SDS_P1;SDS_P2;PMS_P1;PMS_P2;Temp;Humidity;BMP_temperature;BMP_pressure;BME280_temperature;BME280_humidity;BME280_pressure;Samples;Min_cycle;Max_cycle;Signal;HPM_P1;HPM_P2
2020/12/05 00:01:19;;;;;;;30.92;18.55;;;1.90;99.90;;;;;;5025757;28;20125;-75
2020/12/05 00:03:45;;;;;;;34.65;20.33;;;2.00;99.90;;;;;;5024028;28;20112;-76
2020/12/05 00:06:10;;;;;;;30.50;19.05;;;2.00;99.90;;;;;;5025488;28;20076;-74
2020/12/05 00:08:36;;;;;;;38.42;22.42;;;2.00;99.90;;;;;;5024112;28;20033;-75
2020/12/05 00:11:02;;;;;;;50.00;30.83;;;2.10;99.90;;;;;;5024765;28;20021;-73
2020/12/05 00:13:28;;;;;;;41.03;25.95;;;2.10;99.90;;;;;;5023577;28;20779;-73
2020/12/05 00:15:53;;;;;;;48.45;28.95;;;2.10;99.90;;;;;;5028256;28;20244;-73
2020/12/05 00:18:19;;;;;;;41.22;26.50;;;2.10;99.90;;;;;;5027932;28;20040;-73
2020/12/05 00:20:45;;;;;;;44.83;25.10;;;2.10;99.90;;;;;;5030336;28;20428;-72
2020/12/05 00:23:12;;;;;;;38.92;25.55;;;2.10;99.90;;;;;;5028861;28;20033;-72
2020/12/05 00:25:41;;;;;;;40.63;26.65;;;2.20;99.90;;;;;;5028929;28;20451;-72
2020/12/05 00:28:07;;;;;;;41.55;26.77;;;2.20;99.90;;;;;;5029118;28;20033;-75
2020/12/05 00:30:33;;;;;;;40.50;25.67;;;2.20;99.90;;;;;;5027640;28;20036;-75
2020/12/05 00:33:02;;;;;;;37.38;25.33;;;2.20;99.90;;;;;;5029262;28;20029;-72
2020/12/05 00:35:29;;;;;;;40.80;26.58;;;2.20;99.90;;;;;;5027784;28;20036;-72
2020/12/05 00:37:55;;;;;;;43.63;26.13;;;2.20;99.90;;;;;;5029362;28;20041;-72
2020/12/05 00:40:22;;;;;;;45.05;27.55;;;2.10;99.90;;;;;;5027071;28;20052;-72
2020/12/05 00:42:48;;;;;;;36.50;24.77;;;2.10;99.90;;;;;;5029500;28;20080;-72
2020/12/05 00:45:14;;;;;;;48.20;26.95;;;2.10;99.90;;;;;;5027571;28;20041;-73
2020/12/05 00:47:40;;;;;;;40.92;27.08;;;2.00;99.90;;;;;;5029393;28;20072;-73
2020/12/05 00:50:05;;;;;;;37.35;24.85;;;2.00;99.90;;;;;;5027551;28;20403;-73
2020/12/05 00:52:31;;;;;;;41.20;26.45;;;2.10;99.90;;;;;;5029027;28;20033;-73
2020/12/05 00:54:57;;;;;;;51.33;30.92;;;2.10;99.90;;;;;;5028517;28;20033;-73
2020/12/05 00:57:22;;;;;;;41.15;25.98;;;2.10;99.90;;;;;;5028103;28;20042;-72
2020/12/05 00:59:48;;;;;;;47.35;29.92;;;2.00;99.90;;;;;;5029237;28;20056;-73
2020/12/05 01:02:13;;;;;;;47.08;29.83;;;2.00;99.90;;;;;;5027558;28;20053;-73
2020/12/05 01:04:39;;;;;;;43.45;25.40;;;2.00;99.90;;;;;;5028929;28;20461;-73
2020/12/05 01:07:05;;;;;;;45.30;26.52;;;2.00;99.90;;;;;;5027249;28;20391;-73
2020/12/05 01:09:31;;;;;;;40.15;24.58;;;2.00;99.90;;;;;;5028498;28;20424;-73
2020/12/05 01:11:56;;;;;;;35.58;22.75;;;2.10;99.90;;;;;;5027276;28;20053;-72
2020/12/05 01:14:22;;;;;;;34.63;22.25;;;2.00;99.90;;;;;;5028823;28;20029;-71
2020/12/05 01:16:47;;;;;;;31.58;19.95;;;2.00;99.90;;;;;;5027458;28;20138;-73
2020/12/05 01:19:13;;;;;;;34.03;21.23;;;2.10;99.90;;;;;;5028707;28;20497;-72
2020/12/05 01:21:39;;;;;;;35.75;20.55;;;2.10;99.90;;;;;;5031384;28;20515;-73
2020/12/05 01:24:04;;;;;;;32.22;18.98;;;2.00;99.90;;;;;;5049241;28;20037;-73
2020/12/05 01:26:30;;;;;;;25.85;16.45;;;2.00;99.90;;;;;;5044644;28;20029;-73
2020/12/05 01:28:55;;;;;;;33.47;17.67;;;2.10;99.90;;;;;;5028786;28;20037;-73
2020/12/05 01:31:21;;;;;;;25.90;15.55;;;2.10;99.90;;;;;;5027519;28;20037;-72
2020/12/05 01:33:46;;;;;;;27.70;17.35;;;2.10;99.90;;;;;;5027524;28;20053;-73
2020/12/05 01:36:12;;;;;;;25.58;16.13;;;2.00;99.90;;;;;;5027597;28;20033;-73
2020/12/05 01:38:38;;;;;;;25.65;15.35;;;2.00;99.90;;;;;;5027028;28;20483;-73
2020/12/05 01:41:05;;;;;;;24.33;14.73;;;2.10;99.90;;;;;;5027840;28;20064;-73
2020/12/05 01:43:32;;;;;;;22.75;14.25;;;2.00;99.90;;;;;;5040561;28;20388;-73
2020/12/05 01:46:04;;;;;;;22.65;14.50;;;1.90;99.90;;;;;;5048437;28;20048;-73
2020/12/05 01:48:30;;;;;;;21.42;15.07;;;2.00;99.90;;;;;;5034304;28;20453;-75
2020/12/05 01:50:56;;;;;;;24.67;16.75;;;2.10;99.90;;;;;;5028347;28;20048;-75
2020/12/05 01:53:22;;;;;;;19.17;13.23;;;2.20;99.90;;;;;;5025561;28;20467;-74
2020/12/05 01:55:49;;;;;;;24.27;15.80;;;2.20;99.90;;;;;;5027747;28;20131;-75
2020/12/05 01:58:15;;;;;;;19.50;13.57;;;2.10;99.90;;;;;;5026524;28;20123;-75
2020/12/05 02:00:41;;;;;;;22.92;15.80;;;2.10;99.90;;;;;;5027572;28;20037;-75
2020/12/05 02:03:07;;;;;;;24.63;15.80;;;2.10;99.90;;;;;;5026747;28;20124;-75
2020/12/05 02:05:48;;;;;;;21.85;15.32;;;2.10;99.90;;;;;;5026112;28;20045;-75
2020/12/05 02:08:18;;;;;;;19.13;12.63;;;2.10;99.90;;;;;;5027529;28;20029;-75
2020/12/05 02:10:48;;;;;;;18.85;13.05;;;2.10;99.90;;;;;;5026650;28;20034;-75
2020/12/05 02:13:26;;;;;;;25.10;15.98;;;2.10;99.90;;;;;;5027762;28;20032;-73
2020/12/05 02:15:52;;;;;;;21.63;14.25;;;2.00;99.90;;;;;;5026301;28;20279;-75
2020/12/05 02:18:19;;;;;;;22.67;15.00;;;2.00;99.90;;;;;;5025678;28;20033;-75
2020/12/05 02:20:47;;;;;;;20.85;14.52;;;2.00;99.90;;;;;;5027498;28;20566;-72
2020/12/05 02:23:17;;;;;;;20.05;13.65;;;2.10;99.90;;;;;;5026614;28;20036;-72
2020/12/05 02:25:52;;;;;;;21.80;15.25;;;2.10;99.90;;;;;;5027500;28;20040;-72
2020/12/05 02:28:22;;;;;;;21.10;14.73;;;2.10;99.90;;;;;;5026162;28;20104;-75
2020/12/05 02:30:48;;;;;;;25.92;16.50;;;2.10;99.90;;;;;;5027257;28;20037;-75
2020/12/05 02:33:14;;;;;;;25.70;15.07;;;2.00;99.90;;;;;;5028349;28;20033;-72
2020/12/05 02:35:40;;;;;;;26.45;18.20;;;1.90;99.90;;;;;;5027047;28;20084;-72
2020/12/05 02:38:16;;;;;;;20.95;15.43;;;1.90;99.90;;;;;;5023052;28;20029;-72
2020/12/05 02:40:42;;;;;;;19.02;13.05;;;1.90;99.90;;;;;;5026828;28;20407;-75
2020/12/05 02:43:08;;;;;;;27.58;17.95;;;2.00;99.90;;;;;;5026602;28;20029;-72
2020/12/05 02:45:34;;;;;;;21.13;14.05;;;2.00;99.90;;;;;;5026429;28;20060;-72
2020/12/05 02:48:01;;;;;;;21.83;15.68;;;2.00;99.90;;;;;;5026876;28;20364;-75
2020/12/05 02:50:28;;;;;;;23.20;15.52;;;1.90;99.90;;;;;;5025499;28;20364;-75
2020/12/05 02:52:53;;;;;;;31.80;20.15;;;1.90;99.90;;;;;;5026686;28;20030;-75
2020/12/05 02:55:19;;;;;;;21.67;14.65;;;1.90;99.90;;;;;;5025530;28;20037;-75
2020/12/05 02:57:44;;;;;;;23.48;16.58;;;1.90;99.90;;;;;;5027120;28;20037;-74
2020/12/05 03:00:10;;;;;;;25.23;16.85;;;1.90;99.90;;;;;;5025358;28;20391;-74
2020/12/05 03:02:36;;;;;;;27.88;18.55;;;1.90;99.90;;;;;;5027181;28;20029;-73
2020/12/05 03:05:01;;;;;;;21.90;16.25;;;1.90;99.90;;;;;;5024992;28;20407;-72
2020/12/05 03:07:27;;;;;;;21.00;15.05;;;1.90;99.90;;;;;;5026084;28;20409;-72
2020/12/05 03:09:53;;;;;;;26.23;17.83;;;1.90;99.90;;;;;;5024951;28;20034;-72
2020/12/05 03:12:18;;;;;;;19.33;13.57;;;1.80;99.90;;;;;;5026581;28;20022;-72
2020/12/05 03:14:44;;;;;;;19.35;13.35;;;1.90;99.90;;;;;;5025381;28;20040;-72
2020/12/05 03:17:10;;;;;;;22.65;14.80;;;1.80;99.90;;;;;;5027052;28;20029;-72
2020/12/05 03:19:35;;;;;;;24.80;16.08;;;1.80;99.90;;;;;;5025521;28;20125;-72
2020/12/05 03:22:01;;;;;;;26.20;16.08;;;1.80;99.90;;;;;;5025490;28;20037;-72
2020/12/05 03:24:27;;;;;;;23.48;16.17;;;1.90;99.90;;;;;;5025177;28;20375;-71
2020/12/05 03:26:52;;;;;;;24.77;16.63;;;1.80;99.90;;;;;;5025500;28;20108;-72
2020/12/05 03:29:18;;;;;;;23.23;14.45;;;1.80;99.90;;;;;;5025911;28;20049;-72
2020/12/05 03:31:56;;;;;;;21.48;14.35;;;1.90;99.90;;;;;;5024614;28;20033;-72
2020/12/05 03:34:22;;;;;;;19.58;14.55;;;1.90;99.90;;;;;;5025825;28;20040;-75
2020/12/05 03:36:48;;;;;;;18.98;12.57;;;1.90;99.90;;;;;;5024690;28;20037;-74
2020/12/05 03:39:14;;;;;;;19.40;13.43;;;1.90;99.90;;;;;;5025564;28;20120;-72
2020/12/05 03:41:40;;;;;;;21.83;15.23;;;1.90;99.90;;;;;;5024285;28;20034;-71
2020/12/05 03:44:06;;;;;;;25.02;16.73;;;1.90;99.90;;;;;;5026245;28;20076;-72
2020/12/05 03:46:31;;;;;;;23.58;16.52;;;1.80;99.90;;;;;;5024183;28;20095;-72
2020/12/05 03:48:59;;;;;;;20.10;13.93;;;1.80;99.90;;;;;;5024335;28;20424;-72
2020/12/05 03:51:25;;;;;;;22.10;15.15;;;1.80;99.90;;;;;;5029265;28;20471;-72
2020/12/05 03:53:50;;;;;;;30.42;19.08;;;1.80;99.90;;;;;;5045531;28;20034;-72
2020/12/05 03:56:16;;;;;;;27.92;18.20;;;1.70;99.90;;;;;;5042287;28;20040;-72
2020/12/05 03:58:41;;;;;;;22.10;15.40;;;1.60;99.90;;;;;;5029561;28;20061;-72
2020/12/05 04:01:07;;;;;;;26.13;16.15;;;1.70;99.90;;;;;;5024206;28;20112;-73
2020/12/05 04:03:33;;;;;;;26.65;18.23;;;1.70;99.90;;;;;;5004599;28;20026;-72
2020/12/05 04:05:58;;;;;;;25.95;16.42;;;1.80;99.90;;;;;;5005725;28;20146;-72
2020/12/05 04:08:24;;;;;;;32.38;19.40;;;1.80;99.90;;;;;;5038952;28;20502;-72
2020/12/05 04:10:50;;;;;;;42.00;21.58;;;1.80;99.90;;;;;;5045588;28;20039;-72
2020/12/05 04:13:15;;;;;;;36.50;20.85;;;1.80;99.90;;;;;;5044059;28;20037;-74
2020/12/05 04:15:41;;;;;;;30.08;18.52;;;1.70;99.90;;;;;;5045721;28;20477;-74
2020/12/05 04:18:07;;;;;;;28.13;18.00;;;1.70;99.90;;;;;;5033838;28;20041;-74
2020/12/05 04:20:32;;;;;;;29.02;19.60;;;1.70;99.90;;;;;;5025695;28;20033;-74
2020/12/05 04:22:58;;;;;;;33.85;20.90;;;1.70;99.90;;;;;;5023590;28;20041;-74
2020/12/05 04:25:24;;;;;;;23.35;16.33;;;1.60;99.90;;;;;;5025611;28;20443;-74
2020/12/05 04:27:50;;;;;;;26.88;17.48;;;1.70;99.90;;;;;;5023733;28;20109;-74
2020/12/05 04:30:16;;;;;;;25.73;16.27;;;1.70;99.90;;;;;;5024905;28;20029;-75
2020/12/05 04:32:42;;;;;;;22.05;15.48;;;1.70;99.90;;;;;;5023378;28;20415;-74
2020/12/05 04:35:08;;;;;;;37.40;21.10;;;1.70;99.90;;;;;;5025793;28;20386;-74
2020/12/05 04:37:34;;;;;;;42.03;20.00;;;1.60;99.90;;;;;;5024366;28;20045;-72
2020/12/05 04:40:00;;;;;;;32.67;20.10;;;1.60;99.90;;;;;;5025474;28;20060;-72
2020/12/05 04:42:25;;;;;;;27.23;17.60;;;1.60;99.90;;;;;;5024547;28;20029;-72
2020/12/05 04:44:52;;;;;;;27.13;19.17;;;1.70;99.90;;;;;;5022345;28;20041;-72
2020/12/05 04:47:18;;;;;;;27.17;19.42;;;1.70;99.90;;;;;;5024690;28;20513;-72
2020/12/05 04:49:45;;;;;;;33.33;22.92;;;1.70;99.90;;;;;;5024373;28;20030;-72
2020/12/05 04:52:19;;;;;;;29.27;20.83;;;1.70;99.90;;;;;;5025189;28;20075;-72
2020/12/05 04:54:48;;;;;;;29.23;18.67;;;1.70;99.90;;;;;;5024360;28;20044;-74
2020/12/05 04:57:20;;;;;;;23.25;17.60;;;1.70;99.90;;;;;;5026032;28;20035;-74
2020/12/05 04:59:46;;;;;;;25.90;18.00;;;1.70;99.90;;;;;;5024201;28;20432;-71
2020/12/05 05:02:15;;;;;;;25.75;16.35;;;1.70;99.90;;;;;;5024973;28;20025;-72
2020/12/05 05:04:41;;;;;;;28.00;17.58;;;1.60;99.90;;;;;;5030101;28;20036;-71
2020/12/05 05:07:06;;;;;;;26.38;18.30;;;1.70;99.90;;;;;;5024651;28;20030;-72
2020/12/05 05:09:32;;;;;;;28.45;20.63;;;1.60;99.90;;;;;;5029439;28;20030;-72
2020/12/05 05:11:58;;;;;;;39.00;23.95;;;1.60;99.90;;;;;;5027223;28;20059;-72
2020/12/05 05:14:33;;;;;;;36.25;22.48;;;1.50;99.90;;;;;;5030914;28;20055;-72
2020/12/05 05:17:08;;;;;;;32.35;21.88;;;1.50;99.90;;;;;;5048847;28;20470;-74
2020/12/05 05:19:36;;;;;;;39.63;25.73;;;1.50;99.90;;;;;;5037032;28;20037;-74
2020/12/05 05:22:02;;;;;;;30.02;20.60;;;1.50;99.90;;;;;;5024151;28;20498;-74
2020/12/05 05:24:28;;;;;;;49.00;32.35;;;1.50;99.90;;;;;;5032581;28;20057;-74
2020/12/05 05:27:05;;;;;;;31.45;19.70;;;1.30;99.90;;;;;;5027108;28;20419;-74
2020/12/05 05:29:42;;;;;;;32.00;19.02;;;1.30;99.90;;;;;;5027262;28;20025;-74
2020/12/05 05:32:12;;;;;;;24.95;16.67;;;1.30;99.90;;;;;;5028548;28;20112;-74
2020/12/05 05:34:38;;;;;;;27.02;17.33;;;1.30;99.90;;;;;;5037883;28;20037;-74
2020/12/05 05:37:14;;;;;;;21.00;16.38;;;1.40;99.90;;;;;;5048369;28;20033;-74
2020/12/05 05:39:47;;;;;;;28.23;19.40;;;1.50;99.90;;;;;;5046651;28;20130;-74
2020/12/05 05:42:25;;;;;;;32.80;20.25;;;1.40;99.90;;;;;;5048300;28;20028;-74
2020/12/05 05:44:51;;;;;;;29.90;19.10;;;1.40;99.90;;;;;;5036894;28;20391;-74
2020/12/05 05:47:20;;;;;;;26.05;16.73;;;1.50;99.90;;;;;;5028363;28;20033;-74
2020/12/05 05:49:46;;;;;;;20.75;13.27;;;1.40;99.90;;;;;;5027099;28;20040;-74
2020/12/05 05:52:17;;;;;;;23.90;17.13;;;1.40;99.90;;;;;;5027670;28;20037;-74
2020/12/05 05:54:52;;;;;;;36.17;21.30;;;1.40;99.90;;;;;;5026048;28;20037;-71
2020/12/05 05:57:18;;;;;;;28.80;19.20;;;1.50;99.90;;;;;;5027995;28;20030;-71
2020/12/05 05:59:45;;;;;;;25.75;18.38;;;1.40;99.90;;;;;;5027114;28;20371;-71
2020/12/05 06:02:12;;;;;;;28.88;18.83;;;1.30;99.90;;;;;;5026681;28;20037;-72
2020/12/05 06:04:39;;;;;;;31.90;20.23;;;1.30;99.90;;;;;;5026801;28;20045;-71
2020/12/05 06:07:07;;;;;;;30.40;20.50;;;1.30;99.90;;;;;;5026121;28;20108;-72
2020/12/05 06:09:48;;;;;;;36.05;24.75;;;1.30;99.90;;;;;;5022900;28;20034;-71
2020/12/05 06:12:21;;;;;;;25.17;16.98;;;1.30;99.90;;;;;;5020554;28;20475;-74
2020/12/05 06:14:48;;;;;;;22.90;13.70;;;1.40;99.90;;;;;;5016510;28;20046;-74
2020/12/05 06:17:18;;;;;;;20.20;13.65;;;1.30;99.90;;;;;;5022904;28;20021;-74
2020/12/05 06:19:46;;;;;;;34.53;20.80;;;1.30;99.90;;;;;;5014443;28;20696;-74
2020/12/05 06:22:40;;;;;;;30.00;20.25;;;1.30;99.90;;;;;;5017968;28;20037;-74
2020/12/05 06:25:11;;;;;;;26.40;18.52;;;1.20;99.90;;;;;;5012714;28;20454;-74
2020/12/05 06:27:43;;;;;;;35.75;21.38;;;1.20;99.90;;;;;;5029098;28;20775;-74
2020/12/05 06:30:10;;;;;;;;;;;1.00;99.90;;;;;;5021275;28;20034;-74
2020/12/05 06:32:44;;;;;;;53.15;28.73;;;1.10;99.90;;;;;;5015645;28;19912;-71
2020/12/05 06:35:19;;;;;;;57.65;28.98;;;1.00;99.90;;;;;;5013907;28;20038;-71
2020/12/05 06:37:45;;;;;;;35.55;20.48;;;1.00;99.90;;;;;;5013064;28;20067;-71
2020/12/05 06:40:11;;;;;;;26.40;19.08;;;1.10;99.90;;;;;;5020565;28;20474;-71
2020/12/05 06:42:42;;;;;;;26.65;16.98;;;1.10;99.90;;;;;;5017298;28;20124;-71
2020/12/05 06:45:08;;;;;;;27.13;15.48;;;1.10;99.90;;;;;;5019023;28;20784;-74
2020/12/05 06:47:34;;;;;;;24.65;10.50;;;1.20;99.90;;;;;;5022322;28;20037;-74
2020/12/05 06:50:01;;;;;;;16.60;7.85;;;1.10;99.90;;;;;;5017836;28;20037;-71
2020/12/05 06:52:29;;;;;;;16.90;9.23;;;1.10;99.90;;;;;;5023139;28;20040;-71
2020/12/05 06:54:56;;;;;;;15.82;9.07;;;1.10;99.90;;;;;;5015895;28;20049;-73
2020/12/05 06:57:24;;;;;;;20.63;12.90;;;1.10;99.90;;;;;;5007053;28;20144;-74
2020/12/05 06:59:50;;;;;;;19.13;10.13;;;1.10;99.90;;;;;;5013691;28;20040;-71
2020/12/05 07:02:29;;;;;;;20.80;11.05;;;1.20;99.90;;;;;;5024935;28;20034;-71
2020/12/05 07:05:13;;;;;;;21.98;14.52;;;1.10;99.90;;;;;;5014181;28;20546;-74
2020/12/05 07:07:39;;;;;;;14.70;9.10;;;1.20;99.90;;;;;;5017772;28;20039;-71
2020/12/05 07:10:05;;;;;;;14.52;6.45;;;1.20;99.90;;;;;;5011361;28;20037;-71
2020/12/05 07:12:40;;;;;;;19.08;10.90;;;1.20;99.90;;;;;;5017108;28;20032;-71
2020/12/05 07:15:29;;;;;;;26.65;16.70;;;1.20;99.90;;;;;;5014615;28;20042;-74
2020/12/05 07:17:58;;;;;;;17.20;9.05;;;1.20;99.90;;;;;;5016433;28;20048;-71
2020/12/05 07:20:27;;;;;;;17.60;10.55;;;1.20;99.90;;;;;;5018412;28;20088;-71
2020/12/05 07:22:53;;;;;;;18.33;11.63;;;1.30;99.90;;;;;;5019945;28;20072;-71
2020/12/05 07:25:20;;;;;;;16.00;9.35;;;1.20;99.90;;;;;;5018978;28;20033;-71
2020/12/05 07:27:46;;;;;;;12.63;7.65;;;1.20;99.90;;;;;;5020758;28;20155;-71
2020/12/05 07:30:12;;;;;;;11.82;7.03;;;1.30;99.90;;;;;;5019139;28;20538;-71
2020/12/05 07:32:41;;;;;;;9.82;5.82;;;1.30;99.90;;;;;;5019610;28;20052;-71
2020/12/05 07:35:09;;;;;;;9.55;5.80;;;1.40;99.90;;;;;;5014488;28;20103;-71
2020/12/05 07:37:34;;;;;;;16.17;8.60;;;1.30;99.90;;;;;;5021506;28;22266;-71
2020/12/05 07:40:02;;;;;;;17.48;9.07;;;1.30;99.90;;;;;;5016232;28;20056;-71
2020/12/05 07:42:35;;;;;;;13.90;8.95;;;1.40;99.90;;;;;;5018980;28;20116;-73
2020/12/05 07:45:12;;;;;;;15.48;7.90;;;1.40;99.90;;;;;;5019441;28;20470;-74
2020/12/05 07:47:39;;;;;;;12.35;6.63;;;1.50;99.90;;;;;;5017208;28;20463;-73
2020/12/05 07:50:10;;;;;;;17.48;8.50;;;1.50;99.90;;;;;;5019086;28;20021;-74
2020/12/05 07:52:41;;;;;;;20.33;12.68;;;1.50;99.90;;;;;;5017042;28;20087;-73
2020/12/05 07:55:09;;;;;;;24.95;14.73;;;1.60;99.90;;;;;;5014669;28;20038;-74
2020/12/05 07:57:36;;;;;;;20.65;12.15;;;1.60;99.90;;;;;;5012926;28;20027;-73
2020/12/05 08:00:12;;;;;;;18.85;10.93;;;1.60;99.90;;;;;;5016936;28;20029;-70
2020/12/05 08:02:50;;;;;;;22.63;12.63;;;1.50;99.90;;;;;;5019806;28;20512;-73
2020/12/05 08:05:46;;;;;;;21.58;14.40;;;1.40;99.90;;;;;;5015656;28;20407;-73
2020/12/05 08:08:16;;;;;;;21.40;13.85;;;1.50;99.90;;;;;;5018214;28;20335;-74
2020/12/05 08:10:42;;;;;;;22.80;14.45;;;1.40;99.90;;;;;;5019331;28;20030;-73
2020/12/05 08:13:26;;;;;;;28.15;15.48;;;1.40;99.90;;;;;;5020034;28;20037;-73
2020/12/05 08:16:06;;;;;;;17.67;13.07;;;1.40;99.90;;;;;;5014186;28;20039;-73
2020/12/05 08:18:34;;;;;;;20.42;13.38;;;1.50;99.90;;;;;;5015167;28;20061;-73
2020/12/05 08:21:01;;;;;;;16.52;12.23;;;1.50;99.90;;;;;;5011532;28;20034;-73
2020/12/05 08:23:35;;;;;;;16.67;11.30;;;1.40;99.90;;;;;;5013503;28;20042;-73
2020/12/05 08:26:03;;;;;;;17.58;10.95;;;1.40;99.90;;;;;;5013812;28;20114;-73
2020/12/05 08:28:40;;;;;;;15.55;11.57;;;1.60;99.90;;;;;;5022563;28;20025;-73
2020/12/05 08:31:08;;;;;;;18.10;11.65;;;1.60;99.90;;;;;;5017436;28;20207;-73
2020/12/05 08:33:52;;;;;;;17.65;10.02;;;1.60;99.90;;;;;;5018584;28;20386;-73
2020/12/05 08:36:31;;;;;;;15.30;9.25;;;1.60;99.90;;;;;;5013254;28;20644;-73
2020/12/05 08:39:02;;;;;;;15.38;10.48;;;1.60;99.90;;;;;;5023481;28;20045;-73
2020/12/05 08:41:28;;;;;;;13.63;9.05;;;1.60;99.90;;;;;;5013742;28;20084;-73
2020/12/05 08:43:54;;;;;;;22.65;11.88;;;1.60;99.90;;;;;;5025918;28;20116;-73
2020/12/05 08:46:22;;;;;;;17.15;11.63;;;1.70;99.90;;;;;;5018111;28;20131;-73
2020/12/05 08:48:48;;;;;;;14.48;11.05;;;1.70;99.90;;;;;;5024097;28;20026;-73
2020/12/05 08:51:15;;;;;;;15.93;11.60;;;1.80;99.90;;;;;;5018891;28;20034;-73
2020/12/05 08:53:41;;;;;;;18.85;12.05;;;1.80;99.90;;;;;;5018297;28;20063;-73
2020/12/05 08:56:06;;;;;;;19.13;12.32;;;1.80;99.90;;;;;;5015126;28;20038;-73
2020/12/05 08:58:43;;;;;;;18.00;11.90;;;1.80;99.90;;;;;;5021177;28;20072;-73
2020/12/05 09:01:08;;;;;;;20.95;12.07;;;1.90;99.90;;;;;;5008444;28;20034;-73
2020/12/05 09:03:37;;;;;;;22.13;12.73;;;1.80;99.90;;;;;;5011612;28;20038;-73
2020/12/05 09:06:02;;;;;;;23.45;14.18;;;1.90;99.90;;;;;;5018254;28;20041;-73
2020/12/05 09:08:28;;;;;;;25.27;13.13;;;2.00;99.90;;;;;;5021467;28;20024;-73
2020/12/05 09:10:54;;;;;;;24.50;14.93;;;2.00;99.90;;;;;;5022263;28;20038;-73
2020/12/05 09:13:19;;;;;;;17.88;11.25;;;2.10;99.90;;;;;;5027594;28;20025;-73
2020/12/05 09:15:55;;;;;;;23.42;12.43;;;2.10;99.90;;;;;;5020239;28;20037;-73
2020/12/05 09:18:21;;;;;;;20.88;11.23;;;2.10;99.90;;;;;;5021271;28;20096;-73
2020/12/05 09:20:46;;;;;;;18.23;11.15;;;2.10;99.90;;;;;;5019566;28;20506;-73
2020/12/05 09:23:12;;;;;;;27.00;12.77;;;2.20;99.90;;;;;;5021093;28;20040;-73
2020/12/05 09:25:41;;;;;;;28.40;12.50;;;2.30;99.90;;;;;;5021726;28;20064;-73
2020/12/05 09:28:11;;;;;;;19.30;11.80;;;2.30;99.90;;;;;;5026460;28;20060;-73
2020/12/05 09:30:38;;;;;;;24.17;12.38;;;2.30;99.90;;;;;;5010454;28;20038;-73
2020/12/05 09:33:16;;;;;;;16.40;9.38;;;2.30;99.90;;;;;;5017385;28;20379;-73
2020/12/05 09:35:42;;;;;;;16.48;9.75;;;2.30;99.90;;;;;;5015014;28;20033;-73
2020/12/05 09:38:08;;;;;;;15.35;9.55;;;2.40;99.90;;;;;;5021189;28;20530;-73
2020/12/05 09:40:33;;;;;;;20.45;12.13;;;2.50;99.90;;;;;;5013585;28;20053;-73
2020/12/05 09:43:00;;;;;;;15.00;11.00;;;2.60;99.90;;;;;;5029007;28;20029;-73
2020/12/05 09:45:26;;;;;;;25.83;15.43;;;2.60;99.90;;;;;;5025411;28;20049;-73
2020/12/05 09:47:53;;;;;;;28.45;19.33;;;2.50;99.90;;;;;;5015774;28;20060;-73
2020/12/05 09:50:19;;;;;;;27.45;18.40;;;2.60;99.90;;;;;;5022310;28;20371;-73
2020/12/05 09:52:45;;;;;;;24.65;18.33;;;2.50;99.90;;;;;;5015702;28;20034;-73
2020/12/05 09:55:11;;;;;;;25.55;18.88;;;2.60;99.90;;;;;;5018445;28;20033;-73
2020/12/05 09:57:37;;;;;;;22.65;15.80;;;2.80;99.90;;;;;;5025336;28;20469;-73
2020/12/05 10:00:09;;;;;;;27.60;17.63;;;2.70;99.90;;;;;;5020317;28;20565;-73
2020/12/05 10:02:36;;;;;;;36.38;18.17;;;2.70;99.90;;;;;;5024811;28;20114;-73
2020/12/05 10:05:03;;;;;;;38.65;23.67;;;2.50;99.90;;;;;;5019430;28;20033;-73
2020/12/05 10:07:29;;;;;;;29.80;20.30;;;2.60;99.90;;;;;;5016791;28;20047;-73
2020/12/05 10:09:54;;;;;;;30.45;18.80;;;2.90;99.90;;;;;;5021300;28;20527;-73
2020/12/05 10:12:20;;;;;;;23.25;16.42;;;3.00;99.90;;;;;;5026757;28;20362;-73
2020/12/05 10:14:45;;;;;;;29.00;18.20;;;3.00;99.90;;;;;;5019777;28;20412;-73
2020/12/05 10:17:11;;;;;;;31.02;18.95;;;3.20;99.90;;;;;;5020841;28;20153;-73
2020/12/05 10:19:37;;;;;;;28.95;19.67;;;3.10;99.90;;;;;;5018814;28;20077;-73
2020/12/05 10:22:03;;;;;;;45.10;31.92;;;3.00;99.90;;;;;;5026707;28;20037;-73
2020/12/05 10:24:29;;;;;;;48.85;33.55;;;3.00;99.90;;;;;;5014591;28;20045;-73
2020/12/05 10:26:54;;;;;;;48.35;32.28;;;3.20;99.90;;;;;;5012071;28;20034;-73
2020/12/05 10:29:24;;;;;;;37.50;24.98;;;3.20;99.90;;;;;;5018766;28;20034;-73
2020/12/05 10:31:52;;;;;;;39.15;26.20;;;3.20;99.90;;;;;;5019931;28;20092;-73
2020/12/05 10:34:19;;;;;;;32.00;21.05;;;3.30;99.90;;;;;;5024388;28;20143;-73
2020/12/05 10:36:45;;;;;;;31.92;19.13;;;3.30;99.90;;;;;;5020909;28;20588;-73
2020/12/05 10:39:11;;;;;;;27.33;17.52;;;3.40;99.90;;;;;;5023587;28;20486;-73
2020/12/05 10:41:38;;;;;;;28.45;16.88;;;3.50;99.90;;;;;;5020076;28;20057;-74
2020/12/05 10:44:09;;;;;;;29.30;18.50;;;3.60;99.90;;;;;;5020129;28;20037;-74
2020/12/05 10:46:43;;;;;;;36.45;18.65;;;3.50;99.90;;;;;;5019922;28;20030;-74
2020/12/05 10:49:10;;;;;;;28.42;16.65;;;3.50;99.90;;;;;;5021510;28;20029;-74
2020/12/05 10:51:36;;;;;;;26.33;15.45;;;3.60;99.90;;;;;;5020602;28;20037;-73
2020/12/05 10:54:03;;;;;;;32.65;19.85;;;3.50;99.90;;;;;;5019132;28;20237;-74
2020/12/05 10:56:29;;;;;;;33.95;22.42;;;3.50;99.90;;;;;;5017251;28;20045;-73
2020/12/05 10:58:54;;;;;;;28.45;20.75;;;3.50;99.90;;;;;;5022667;28;20144;-73
2020/12/05 11:01:20;;;;;;;37.83;22.23;;;3.60;99.90;;;;;;5016267;28;20056;-73
2020/12/05 11:03:46;;;;;;;27.65;18.33;;;3.60;99.90;;;;;;5021642;28;20029;-74
2020/12/05 11:06:12;;;;;;;27.67;20.58;;;3.60;99.90;;;;;;5021472;28;20029;-74
2020/12/05 11:08:37;;;;;;;25.25;18.13;;;3.60;99.90;;;;;;5023562;28;20034;-75
2020/12/05 11:11:03;;;;;;;24.95;17.70;;;3.60;99.90;;;;;;5021176;28;20085;-74
2020/12/05 11:13:28;;;;;;;28.08;18.15;;;3.60;99.90;;;;;;5020009;28;20440;-74
2020/12/05 11:15:54;;;;;;;25.23;16.65;;;3.60;99.90;;;;;;5016652;28;20539;-74
2020/12/05 11:18:20;;;;;;;27.17;18.00;;;3.60;99.90;;;;;;5021319;28;20104;-74
2020/12/05 11:20:45;;;;;;;30.58;19.48;;;3.60;99.90;;;;;;5016521;28;20042;-75
2020/12/05 11:23:11;;;;;;;30.15;21.58;;;3.60;99.90;;;;;;5037403;28;20033;-74
2020/12/05 11:25:37;;;;;;;32.00;22.88;;;3.40;99.90;;;;;;5020023;28;20498;-74
2020/12/05 11:28:03;;;;;;;29.58;21.00;;;3.30;99.90;;;;;;5021846;28;20046;-74
2020/12/05 11:30:28;;;;;;;35.05;25.02;;;3.40;99.90;;;;;;5010762;28;20137;-75
2020/12/05 11:32:54;;;;;;;34.25;23.77;;;3.40;99.90;;;;;;5017290;28;20116;-74
2020/12/05 11:35:20;;;;;;;30.00;21.58;;;3.40;99.90;;;;;;5011244;28;20467;-74
2020/12/05 11:37:45;;;;;;;30.92;21.08;;;3.50;99.90;;;;;;5016258;28;20049;-74
2020/12/05 11:40:11;;;;;;;33.42;20.92;;;3.40;99.90;;;;;;5021253;28;20388;-74
2020/12/05 11:42:37;;;;;;;36.88;25.48;;;3.30;99.90;;;;;;5021456;28;20068;-75
2020/12/05 11:45:04;;;;;;;36.17;24.77;;;3.30;99.90;;;;;;5018641;28;20046;-74
2020/12/05 11:47:29;;;;;;;31.27;21.10;;;3.30;99.90;;;;;;5018342;28;20531;-75
2020/12/05 11:49:55;;;;;;;27.00;18.73;;;3.30;99.90;;;;;;5019349;28;20046;-74
2020/12/05 11:52:21;;;;;;;28.23;17.98;;;3.20;99.90;;;;;;5013260;28;20068;-74
2020/12/05 11:54:46;;;;;;;29.17;20.23;;;3.20;99.90;;;;;;5033334;28;20037;-74
2020/12/05 11:57:12;;;;;;;51.67;34.03;;;3.20;99.90;;;;;;5019689;28;20033;-74
2020/12/05 11:59:41;;;;;;;38.92;30.00;;;3.30;99.90;;;;;;5010679;28;20407;-74
2020/12/05 12:02:08;;;;;;;40.88;29.50;;;3.30;99.90;;;;;;5005933;28;20033;-75
2020/12/05 12:04:40;;;;;;;36.13;26.10;;;3.20;99.90;;;;;;5010907;28;20128;-75
2020/12/05 12:07:06;;;;;;;29.52;21.30;;;3.20;99.90;;;;;;5014370;28;20037;-74
2020/12/05 12:09:32;;;;;;;34.25;26.45;;;3.20;99.90;;;;;;5017765;28;20040;-75
2020/12/05 12:11:58;;;;;;;46.63;33.47;;;3.10;99.90;;;;;;5007934;28;20025;-74
2020/12/05 12:14:23;;;;;;;48.95;35.05;;;3.10;99.90;;;;;;5011131;28;20033;-75
2020/12/05 12:16:49;;;;;;;50.78;37.28;;;3.10;99.90;;;;;;5010085;28;20565;-75
2020/12/05 12:19:14;;;;;;;50.72;40.22;;;3.10;99.90;;;;;;5013355;28;20025;-75
2020/12/05 12:21:40;;;;;;;45.25;31.10;;;3.20;99.90;;;;;;5012491;28;20586;-75
2020/12/05 12:24:06;;;;;;;45.45;33.17;;;3.20;99.90;;;;;;5014853;28;20076;-75
2020/12/05 12:26:31;;;;;;;36.85;27.15;;;3.20;99.90;;;;;;5017382;28;20060;-75
2020/12/05 12:28:57;;;;;;;34.80;25.88;;;3.20;99.90;;;;;;5015612;28;20038;-75
2020/12/05 12:31:23;;;;;;;44.20;29.08;;;3.20;99.90;;;;;;5017221;28;20485;-75
2020/12/05 12:33:48;;;;;;;38.20;27.90;;;3.10;99.90;;;;;;5015684;28;20095;-75
2020/12/05 12:36:18;;;;;;;34.15;26.45;;;3.00;99.90;;;;;;5012758;28;20479;-74
2020/12/05 12:38:44;;;;;;;42.70;32.05;;;3.10;99.90;;;;;;5017080;28;20041;-74
2020/12/05 12:41:17;;;;;;;50.80;33.42;;;3.10;99.90;;;;;;5012776;28;20296;-74